Delhi, LA (71232)

4:07 PM CDT on August 24, 2016 (GMT -0500)
Ruff. Rd. | | Change Station
Active Advisory: Heat Advisory

Elev 85 ft 32.57 °N, 91.64 °W | Updated 16 seconds ago

Partly Cloudy
Partly Cloudy
93.9 °F
Feels Like 118 °F
N
2.9
Wind Variable Wind from NNE
Gusts 4.9 mph

Today
High -- | Low -- °F
--% Chance of Precip.
Yesterday
High -- | Low -- °F
Precip. -- in
Pressure 30.11 in
Visibility 10.0 miles
Clouds Few 4600 ft
Heat Index 118 °F
Dew Point 82 °F
Humidity 69%
Rainfall 0.00 in
Snow Depth Not available.
6:36 AM 7:39 PM
Waning Gibbous, 53% visible
METAR KTVR 242053Z AUTO 06004KT 10SM FEW046 34/25 A3009 RMK AO2 SLP194 T03440250 58021
Pressure 30.11 in
Visibility 10.0 miles
Clouds Few 4600 ft
Heat Index 118 °F
Dew Point 82 °F
Humidity 69%
Rainfall 0.00 in
Snow Depth Not available.
6:36 AM 7:39 PM
Waning Gibbous, 53% visible
METAR KTVR 242053Z AUTO 06004KT 10SM FEW046 34/25 A3009 RMK AO2 SLP194 T03440250 58021

10-Day Weather Forecast

Almanac

Astronomy

Aug. 24, 2016 Rise Set
Actual Time
Civil Twilight
Nautical Twilight
Astronomical Twilight
Moon
Length of Visible Light
Length of Day
Tomorrow will be .
, % of the Moon is Illuminated

Today's Extremes

State Highs State Lows

Community

WunderPhotos

Upload Photos

1,934,714 photos uploaded!

WunderBlog® & News

Nearby

Air Quality

  Air Quality AQ Index Pollutant
Not available.

Snow Depth

Station Depth Elevation

Earthquake Activity

City Distance Mag. Time & Date
Minimum magnitude displayed is 2.5.

Coastal Water Temperatures

Place Temperature

Stations

Nearby Weather Stations

Station Location Temp. Windchill Dew Point Humidity Wind Precip. Elev Updated Type
                   

Watches & Warnings

Heat Advisory
Issued: 4:24 AM CDT Aug. 24, 2016 – National Weather Service

... Heat advisory remains in effect from 10 am this morning to
7 PM CDT this evening...

* temperature... highs in the mid 90s combined with high humidity will
result in heat indices between 105 and 110 Wednesday afternoon.

* Impacts... heat stress will reach dangerous levels and could
lead to heat exhaustion or heat stroke for those working
outdoors.

Precautionary/preparedness actions...

Take extra precautions... if you work or spend time outside. When
possible... reschedule strenuous activities to early morning or
evening. Know the signs and symptoms of heat exhaustion and heat
stroke. Wear light weight and loose fitting clothing when
possible and drink plenty of water.